Terminal Aerodrome Forecast
Issued by NWS

Home | Current Version | Previous Version | Text Only | Print | Product List | Glossary On
Versions: 1 2 3 4 5 6 7 8 9 10 11 12 13
000
FTUS45 KGJT 271738
TAFDRO
TAF
KDRO 271738Z 2718/2818 VRB03KT P6SM VCSH BKN045 OVC060
     FM272100 24015G23KT P6SM VCSH OVC030
     FM280000 24013KT 6SM -RASN OVC025
     FM280300 24010KT 2SM -SN OVC010
     FM280500 24008KT 1/2SM SN OVC008
     FM281400 25005KT 2SM -SN OVC015=

USA.gov is the U.S. government's official web portal to all federal, state and local government web resources and services.